Terminal Aerodrome Forecast
Issued by NWS

Home | Current Version | Previous Version | Text Only | Print | Product List | Glossary On
Versions: 1 2 3 4 5 6 7 8 9 10 11 12 13 14 15 16 17 18 19 20 21 22 23 24 25 26 27 28 29 30 31 32 33 34 35 36 37 38 39 40 41 42 43 44 45 46 47 48 49 50
000
FTUS41 KBTV 231737
TAFPBG
TAF
KPBG 231737Z 2318/2418 13008KT P6SM BKN035 OVC100
     FM232100 10006KT P6SM BKN150
     FM240700 03009KT P6SM -SNPL OVC030
     FM241200 01011KT 2SM -SNPL BR OVC015
     FM241500 36009KT P6SM -SN OVC008=

USA.gov is the U.S. government's official web portal to all federal, state and local government web resources and services.